Time;durP1;ratioP1;P1;durP2;ratioP2;P2;SDS_P1;SDS_P2;PMS_P1;PMS_P2;Temp;Humidity;BMP_temperature;BMP_pressure;BME280_temperature;BME280_humidity;BME280_pressure;Samples;Min_cycle;Max_cycle;Signal;HPM_P1;HPM_P2
2022/10/09 00:01:27;;;;;;;7.80;3.60;;;;;;;13.35;73.82;100780.84;103818;1284;140762;-89
2022/10/09 00:03:56;;;;;;;9.80;3.80;;;;;;;13.34;73.97;100779.45;103915;1284;95269;-90
2022/10/09 00:06:27;;;;;;;8.20;3.60;;;;;;;13.25;73.57;100779.55;103783;1284;138863;-89
2022/10/09 00:08:57;;;;;;;8.00;3.30;;;;;;;13.15;73.15;100779.34;103955;1284;98365;-90
2022/10/09 00:11:27;;;;;;;7.40;3.60;;;;;;;13.05;73.26;100784.05;103934;1284;107883;-90
2022/10/09 00:13:56;;;;;;;9.60;3.60;;;;;;;13.08;73.28;100783.81;103677;1284;138783;-92
2022/10/09 00:16:24;;;;;;;7.30;3.70;;;;;;;13.03;73.46;100788.59;103948;1284;95260;-88
2022/10/09 00:18:53;;;;;;;7.30;3.40;;;;;;;13.04;73.62;100793.21;103744;1284;139701;-90
2022/10/09 00:21:26;;;;;;;9.10;3.40;;;;;;;13.03;73.75;100795.36;103845;1284;98412;-89
2022/10/09 00:23:56;;;;;;;8.80;3.70;;;;;;;12.99;73.72;100797.44;103674;1284;140498;-90
2022/10/09 00:26:25;;;;;;;8.80;3.50;;;;;;;12.96;73.92;100801.98;103885;1284;95444;-89
2022/10/09 00:28:54;;;;;;;9.50;4.20;;;;;;;12.93;73.90;100804.94;103820;1284;95121;-89
2022/10/09 00:31:23;;;;;;;7.30;3.90;;;;;;;12.88;73.66;100800.63;103900;1284;139209;-89
2022/10/09 00:33:51;;;;;;;8.00;3.80;;;;;;;12.80;73.62;100800.67;103646;1284;98484;-89
2022/10/09 00:36:22;;;;;;;9.70;4.00;;;;;;;12.80;73.72;100796.75;103704;1284;139570;-91
2022/10/09 00:38:53;;;;;;;7.90;3.90;;;;;;;12.76;73.45;100789.05;103776;1284;95188;-89
2022/10/09 00:41:24;;;;;;;7.30;4.00;;;;;;;12.71;73.52;100787.58;103891;1284;95601;-89
2022/10/09 00:43:55;;;;;;;8.80;4.10;;;;;;;12.67;73.34;100785.73;103709;1284;139583;-90
2022/10/09 00:46:32;;;;;;;8.00;3.90;;;;;;;12.61;73.34;100793.56;103993;1284;98441;-90
2022/10/09 00:49:13;;;;;;;8.20;4.00;;;;;;;12.52;73.23;100800.58;103706;1283;138923;-89
2022/10/09 00:51:43;;;;;;;9.10;4.30;;;;;;;12.44;73.51;100799.38;103836;1284;95774;-89
2022/10/09 00:54:15;;;;;;;8.60;4.60;;;;;;;12.35;73.51;100797.66;103686;1284;139289;-89
2022/10/09 00:56:43;;;;;;;9.50;4.40;;;;;;;12.29;73.62;100803.88;103879;1284;107371;-91
2022/10/09 00:59:12;;;;;;;9.10;4.90;;;;;;;12.24;73.91;100806.67;103778;1287;98303;-90
2022/10/09 01:01:40;;;;;;;9.50;4.60;;;;;;;12.20;74.20;100809.82;103669;1284;139347;-90
2022/10/09 01:04:09;;;;;;;9.50;5.20;;;;;;;12.14;74.27;100808.19;103885;1284;95296;-89
2022/10/09 01:06:57;;;;;;;9.50;4.70;;;;;;;12.09;74.63;100815.63;103713;1284;139437;-91
2022/10/09 01:09:50;;;;;;;10.00;4.70;;;;;;;12.07;74.80;100821.90;103693;1284;108675;-90
2022/10/09 01:12:56;;;;;;;9.40;4.90;;;;;;;12.07;74.92;100823.48;103584;1284;139941;-90
2022/10/09 01:15:38;;;;;;;10.20;5.00;;;;;;;12.03;74.92;100822.36;103845;1284;107426;-88
2022/10/09 01:18:17;;;;;;;9.30;4.90;;;;;;;11.97;75.18;100826.43;103502;1287;141209;-89
2022/10/09 01:21:23;;;;;;;10.10;4.70;;;;;;;11.93;75.13;100827.38;103709;1284;95161;-90
2022/10/09 01:24:07;;;;;;;10.80;4.90;;;;;;;11.93;75.32;100831.48;103190;1290;139405;-89
2022/10/09 01:27:12;;;;;;;9.50;4.70;;;;;;;11.91;75.13;100832.06;103439;1287;98995;-91
2022/10/09 01:29:45;;;;;;;9.50;5.00;;;;;;;11.87;75.20;100835.36;103682;1284;107770;-90
2022/10/09 01:32:18;;;;;;;11.10;5.50;;;;;;;11.87;75.35;100836.42;103982;1284;95726;-89
2022/10/09 01:34:49;;;;;;;9.80;5.40;;;;;;;11.84;75.19;100834.71;103876;1284;95253;-91
2022/10/09 01:37:19;;;;;;;11.00;5.50;;;;;;;11.83;75.29;100838.46;103728;1283;139394;-89
2022/10/09 01:39:48;;;;;;;11.50;5.50;;;;;;;11.78;75.20;100838.07;103731;1284;98382;-88
2022/10/09 01:42:20;;;;;;;11.50;5.40;;;;;;;11.73;75.32;100839.80;103657;1284;139288;-88
2022/10/09 01:44:47;;;;;;;9.60;5.10;;;;;;;11.72;75.32;100843.73;103888;1284;95259;-89
2022/10/09 01:47:17;;;;;;;10.50;5.30;;;;;;;11.68;75.39;100846.48;103852;1284;95807;-90
2022/10/09 01:49:52;;;;;;;9.00;5.30;;;;;;;11.65;75.42;100846.73;103775;1283;139917;-88
2022/10/09 01:52:35;;;;;;;11.80;5.50;;;;;;;11.61;75.34;100851.30;103909;1284;98367;-89
2022/10/09 01:55:49;;;;;;;8.80;5.30;;;;;;;11.59;75.21;100854.36;103626;1284;139347;-91
2022/10/09 01:58:25;;;;;;;10.10;5.10;;;;;;;11.54;75.35;100861.77;103932;1284;95271;-90
2022/10/09 02:01:04;;;;;;;12.60;5.70;;;;;;;11.50;75.28;100861.84;103893;1284;140034;-90
2022/10/09 02:03:34;;;;;;;9.20;5.40;;;;;;;11.45;75.26;100867.83;103853;1284;107458;-91
2022/10/09 02:06:07;;;;;;;10.30;5.10;;;;;;;11.39;75.37;100871.86;103794;1284;139317;-89
2022/10/09 02:08:38;;;;;;;11.10;5.60;;;;;;;11.35;75.25;100871.79;103872;1287;107781;-90
2022/10/09 02:11:10;;;;;;;12.60;5.60;;;;;;;11.30;75.34;100869.39;103762;1284;95656;-89
2022/10/09 02:13:38;;;;;;;11.10;6.00;;;;;;;11.30;75.50;100877.77;103822;1284;139228;-88
2022/10/09 02:16:26;;;;;;;11.60;6.20;;;;;;;11.26;75.42;100875.88;103755;1284;200363;-90
2022/10/09 02:19:06;;;;;;;14.10;6.50;;;;;;;11.23;75.57;100878.10;103826;1284;139373;-89
2022/10/09 02:21:48;;;;;;;11.10;6.00;;;;;;;11.21;75.37;100877.77;103980;1284;107648;-91
2022/10/09 02:24:23;;;;;;;11.70;5.70;;;;;;;11.19;75.50;100879.22;103696;1284;140000;-89
2022/10/09 02:26:53;;;;;;;9.60;5.90;;;;;;;11.19;75.31;100880.29;103809;1284;96136;-88
2022/10/09 02:29:21;;;;;;;11.40;6.50;;;;;;;11.16;75.26;100888.52;103749;1284;108698;-90
2022/10/09 02:31:50;;;;;;;11.70;6.00;;;;;;;11.07;75.47;100898.67;103666;1284;139652;-89
2022/10/09 02:34:19;;;;;;;10.20;5.90;;;;;;;11.02;75.62;100903.38;103914;1284;107923;-89
2022/10/09 02:36:49;;;;;;;11.60;6.10;;;;;;;11.00;75.66;100907.34;103892;1284;139736;-90
2022/10/09 02:39:17;;;;;;;12.10;5.60;;;;;;;10.94;75.69;100908.00;103911;1284;95164;-89
2022/10/09 02:41:45;;;;;;;12.00;5.90;;;;;;;10.90;76.00;100909.85;103880;1284;108887;-89
2022/10/09 02:44:13;;;;;;;11.70;5.80;;;;;;;10.88;75.92;100912.19;103811;1284;139197;-89
2022/10/09 02:46:41;;;;;;;10.50;5.80;;;;;;;10.85;76.00;100914.91;104014;1284;108482;-88
2022/10/09 02:49:08;;;;;;;12.60;6.20;;;;;;;10.78;76.08;100917.35;103804;1284;138357;-88
2022/10/09 02:51:36;;;;;;;10.10;5.40;;;;;;;10.75;76.30;100922.38;103994;1284;95804;-88
2022/10/09 02:54:04;;;;;;;10.10;5.90;;;;;;;10.76;76.40;100917.23;103810;1283;141408;-90
2022/10/09 02:56:32;;;;;;;9.60;5.80;;;;;;;10.76;76.20;100922.55;104036;1284;98470;-90
2022/10/09 02:59:06;;;;;;;11.00;6.50;;;;;;;10.72;76.32;100923.31;103886;1283;107641;-88
2022/10/09 03:01:34;;;;;;;9.80;6.60;;;;;;;10.71;76.36;100932.20;103769;1284;139578;-89
2022/10/09 03:04:03;;;;;;;9.70;6.10;;;;;;;10.70;76.40;100936.14;103862;1284;95792;-90
2022/10/09 03:06:31;;;;;;;11.50;6.90;;;;;;;10.68;76.57;100941.33;103834;1284;139886;-88
2022/10/09 03:08:59;;;;;;;11.20;6.30;;;;;;;10.65;76.42;100941.91;103920;1284;98621;-89
2022/10/09 03:11:27;;;;;;;10.40;6.60;;;;;;;10.61;76.77;100940.58;103838;1284;107684;-90
2022/10/09 03:13:55;;;;;;;12.20;6.60;;;;;;;10.59;76.70;100943.46;103834;1284;140165;-88
2022/10/09 03:16:27;;;;;;;11.40;6.60;;;;;;;10.59;76.74;100949.67;103768;1284;95261;-89
2022/10/09 03:18:57;;;;;;;12.70;7.10;;;;;;;10.57;76.74;100947.21;103750;1284;139191;-90
2022/10/09 03:21:26;;;;;;;12.20;7.00;;;;;;;10.57;76.61;100950.05;103932;1284;97016;-90
2022/10/09 03:23:54;;;;;;;12.80;7.30;;;;;;;10.55;76.56;100961.45;103807;1284;139972;-90
2022/10/09 03:26:25;;;;;;;13.40;7.10;;;;;;;10.55;76.83;100958.43;104084;1284;95199;-88
2022/10/09 03:28:54;;;;;;;11.40;6.60;;;;;;;10.53;76.97;100961.49;104011;1285;95288;-88
2022/10/09 03:31:24;;;;;;;12.00;7.00;;;;;;;10.51;76.79;100961.86;103719;1284;139119;-90
2022/10/09 03:34:12;;;;;;;12.20;6.60;;;;;;;10.52;76.79;100959.73;103823;1284;99111;-90
2022/10/09 03:36:41;;;;;;;10.80;7.00;;;;;;;10.51;76.63;100960.45;103912;1284;139468;-88
2022/10/09 03:39:09;;;;;;;11.90;7.10;;;;;;;10.47;76.71;100955.89;103630;1284;95554;-90
2022/10/09 03:41:37;;;;;;;12.40;7.20;;;;;;;10.40;76.64;100954.27;103827;1284;95251;-88
2022/10/09 03:44:05;;;;;;;12.50;7.20;;;;;;;10.38;76.75;100951.97;103750;1284;138968;-88
2022/10/09 03:46:34;;;;;;;10.60;6.50;;;;;;;10.33;76.85;100950.95;103963;1287;98734;-89
2022/10/09 03:49:02;;;;;;;14.70;7.50;;;;;;;10.34;76.92;100956.80;103746;1285;140792;-89
2022/10/09 03:51:30;;;;;;;12.80;7.10;;;;;;;10.31;76.89;100959.52;103864;1285;96204;-89
2022/10/09 03:53:58;;;;;;;13.30;7.10;;;;;;;10.33;77.04;100966.94;103780;1284;140654;-89
2022/10/09 03:56:26;;;;;;;11.40;6.90;;;;;;;10.37;76.85;100974.52;103827;1285;109491;-90
2022/10/09 03:58:54;;;;;;;13.40;7.50;;;;;;;10.36;76.65;100975.43;103794;1287;97293;-89
2022/10/09 04:01:22;;;;;;;11.60;6.90;;;;;;;10.37;76.62;100980.21;103719;1285;140500;-88
2022/10/09 04:03:49;;;;;;;10.90;6.90;;;;;;;10.37;76.78;100985.89;103743;1287;95274;-89
2022/10/09 04:06:17;;;;;;;11.30;7.00;;;;;;;10.39;77.02;100987.29;103736;1287;139366;-88
2022/10/09 04:08:45;;;;;;;13.40;7.40;;;;;;;10.39;76.82;100993.68;103804;1285;108782;-88
2022/10/09 04:11:13;;;;;;;11.90;6.90;;;;;;;10.40;76.89;100992.78;103814;1287;98339;-90
2022/10/09 04:13:41;;;;;;;12.40;7.20;;;;;;;10.38;76.82;100995.80;103630;1287;139395;-88
2022/10/09 04:16:11;;;;;;;11.70;7.30;;;;;;;10.33;77.04;100997.10;103528;1287;95719;-88
2022/10/09 04:18:41;;;;;;;11.70;7.00;;;;;;;10.31;77.15;100998.02;103625;1287;139417;-89
2022/10/09 04:21:09;;;;;;;10.80;6.90;;;;;;;10.31;77.32;100994.48;103758;1285;108679;-91
2022/10/09 04:23:37;;;;;;;11.90;7.30;;;;;;;10.29;77.28;100995.38;103903;1285;98387;-90
2022/10/09 04:26:05;;;;;;;11.20;6.70;;;;;;;10.31;77.24;100999.27;103635;1287;139066;-88
2022/10/09 04:28:33;;;;;;;13.20;7.20;;;;;;;10.30;77.24;101002.65;103761;1287;95784;-89
2022/10/09 04:31:01;;;;;;;12.00;7.20;;;;;;;10.29;77.40;100999.48;103625;1286;140208;-89
2022/10/09 04:33:29;;;;;;;11.90;7.20;;;;;;;10.25;77.50;101001.66;103910;1285;108793;-88
2022/10/09 04:35:57;;;;;;;12.40;7.40;;;;;;;10.27;77.63;101005.73;103727;1285;140232;-88
2022/10/09 04:38:25;;;;;;;10.60;6.40;;;;;;;10.27;77.63;101014.61;103893;1284;108406;-87
2022/10/09 04:40:58;;;;;;;10.80;7.10;;;;;;;10.21;77.44;101019.46;103870;1287;95675;-89
2022/10/09 04:43:27;;;;;;;14.00;7.30;;;;;;;10.20;77.49;101015.59;103794;1284;139334;-87
2022/10/09 04:45:55;;;;;;;11.10;7.40;;;;;;;10.18;77.42;101012.23;103812;1284;109306;-89
2022/10/09 04:48:24;;;;;;;11.90;7.10;;;;;;;10.17;77.49;101016.86;103746;1287;139874;-90
2022/10/09 04:50:52;;;;;;;12.00;7.20;;;;;;;10.20;77.60;101026.23;103902;1284;108422;-88
2022/10/09 04:53:20;;;;;;;11.80;7.00;;;;;;;10.19;77.62;101028.55;103892;1284;96168;-91
2022/10/09 04:55:48;;;;;;;11.20;7.10;;;;;;;10.21;77.59;101031.54;103679;1287;139916;-89
2022/10/09 04:58:16;;;;;;;13.10;7.60;;;;;;;10.24;77.57;101035.92;103957;1284;108708;-89
2022/10/09 05:00:48;;;;;;;10.80;6.90;;;;;;;10.24;77.23;101040.38;103879;1284;139723;-88
2022/10/09 05:03:18;;;;;;;13.10;7.30;;;;;;;10.22;77.35;101040.04;103930;1284;107984;-90
2022/10/09 05:05:46;;;;;;;11.40;7.60;;;;;;;10.23;77.50;101045.17;103941;1284;95261;-89
2022/10/09 05:08:15;;;;;;;11.70;7.30;;;;;;;10.19;77.29;101045.22;103894;1287;95337;-88
2022/10/09 05:10:43;;;;;;;12.30;8.00;;;;;;;10.14;77.43;101049.55;103936;1284;108840;-90
2022/10/09 05:13:11;;;;;;;11.40;7.60;;;;;;;10.13;77.59;101060.21;103958;1284;138893;-89
2022/10/09 05:15:41;;;;;;;12.60;8.10;;;;;;;10.11;77.46;101060.23;103858;1287;107082;-89
2022/10/09 05:18:09;;;;;;;12.20;8.50;;;;;;;10.11;77.46;101067.88;103726;1284;139665;-91
2022/10/09 05:20:41;;;;;;;13.20;8.60;;;;;;;10.09;77.32;101076.42;103905;1283;95213;-89
2022/10/09 05:23:09;;;;;;;13.20;9.20;;;;;;;10.09;77.58;101075.19;103833;1284;108710;-91
2022/10/09 05:25:36;;;;;;;12.90;8.40;;;;;;;10.12;77.29;101079.75;103840;1283;139476;-88
2022/10/09 05:28:05;;;;;;;15.30;9.50;;;;;;;10.14;77.45;101083.98;103813;1284;108419;-88
2022/10/09 05:30:33;;;;;;;13.60;9.10;;;;;;;10.14;77.06;101086.48;103637;1284;139702;-88
2022/10/09 05:33:00;;;;;;;13.40;9.20;;;;;;;10.11;77.22;101093.25;103904;1284;95685;-89
2022/10/09 05:35:28;;;;;;;12.20;8.40;;;;;;;10.08;77.43;101094.54;103784;1284;108689;-90
2022/10/09 05:37:56;;;;;;;13.70;8.30;;;;;;;10.06;77.29;101096.67;103620;1284;140281;-90
2022/10/09 05:40:26;;;;;;;11.70;8.70;;;;;;;10.07;77.24;101101.12;103852;1284;107835;-89
2022/10/09 05:42:56;;;;;;;12.00;8.40;;;;;;;10.08;77.09;101106.78;103692;1285;139389;-88
2022/10/09 05:45:28;;;;;;;11.30;8.00;;;;;;;10.08;77.21;101109.79;103863;1284;95831;-88
2022/10/09 05:47:58;;;;;;;10.80;7.70;;;;;;;10.08;77.21;101110.69;103886;1284;139508;-89
2022/10/09 05:50:26;;;;;;;11.00;7.50;;;;;;;10.08;77.15;101109.44;103712;1284;98141;-92
2022/10/09 05:52:55;;;;;;;12.50;7.70;;;;;;;10.09;77.13;101111.91;103636;1285;106769;-89
2022/10/09 05:55:26;;;;;;;12.30;7.90;;;;;;;10.11;77.15;101119.14;103775;1284;139811;-90
2022/10/09 05:57:54;;;;;;;11.80;7.60;;;;;;;10.15;77.21;101126.73;103798;1284;95555;-87
2022/10/09 06:00:22;;;;;;;11.50;6.70;;;;;;;10.15;77.08;101129.39;103846;1284;139955;-89
2022/10/09 06:02:49;;;;;;;11.20;6.90;;;;;;;10.16;77.09;101130.63;104134;1284;98261;-91
2022/10/09 06:05:18;;;;;;;12.10;7.00;;;;;;;10.16;77.13;101141.45;103874;1284;106366;-89
2022/10/09 06:07:46;;;;;;;10.20;6.10;;;;;;;10.21;77.18;101143.34;103874;1285;139318;-87
2022/10/09 06:10:18;;;;;;;11.00;6.30;;;;;;;10.23;76.89;101141.19;104026;1284;95229;-88
2022/10/09 06:12:46;;;;;;;11.10;6.50;;;;;;;10.26;76.71;101145.59;104012;1284;139170;-91
2022/10/09 06:15:15;;;;;;;10.50;6.30;;;;;;;10.30;76.80;101149.09;104089;1283;98371;-89
2022/10/09 06:17:43;;;;;;;10.20;6.10;;;;;;;10.32;76.66;101149.06;104063;1283;109738;-88
2022/10/09 06:20:12;;;;;;;9.60;6.00;;;;;;;10.31;76.43;101153.69;103815;1284;139180;-89
2022/10/09 06:22:40;;;;;;;9.90;6.10;;;;;;;10.27;76.50;101157.64;103858;1284;95706;-88
2022/10/09 06:25:10;;;;;;;9.10;5.60;;;;;;;10.29;76.59;101160.99;103805;1284;139711;-89
2022/10/09 06:27:38;;;;;;;9.80;5.90;;;;;;;10.34;76.59;101163.23;103894;1284;97580;-90
2022/10/09 06:30:06;;;;;;;10.90;5.80;;;;;;;10.35;76.24;101166.44;103846;1284;139082;-89
2022/10/09 06:32:34;;;;;;;11.60;5.60;;;;;;;10.34;76.09;101166.25;103999;1284;96055;-88
2022/10/09 06:35:02;;;;;;;9.60;5.90;;;;;;;10.33;76.10;101170.17;103956;1284;95324;-89
2022/10/09 06:37:30;;;;;;;9.30;5.60;;;;;;;10.32;76.10;101180.30;104055;1284;140050;-90
2022/10/09 06:39:59;;;;;;;9.40;5.60;;;;;;;10.34;76.14;101190.21;103950;1284;98390;-89
2022/10/09 06:42:30;;;;;;;12.20;6.80;;;;;;;10.41;76.15;101192.11;103940;1284;139328;-89
2022/10/09 06:44:58;;;;;;;12.70;9.10;;;;;;;10.43;75.54;101190.84;103937;1284;95275;-87
2022/10/09 06:47:25;;;;;;;13.70;9.40;;;;;;;10.42;75.14;101194.23;103881;1284;95192;-88
2022/10/09 06:49:54;;;;;;;12.40;9.40;;;;;;;10.42;74.76;101205.60;103801;1284;140454;-91
2022/10/09 06:52:22;;;;;;;11.80;8.40;;;;;;;10.44;74.89;101206.45;103952;1284;98861;-88
2022/10/09 06:54:52;;;;;;;10.70;7.90;;;;;;;10.44;74.73;101207.34;103738;1284;139170;-89
2022/10/09 06:57:21;;;;;;;12.70;9.30;;;;;;;10.47;74.79;101208.19;103887;1284;95750;-87
2022/10/09 06:59:49;;;;;;;12.30;9.10;;;;;;;10.51;74.77;101215.59;103667;1284;139872;-88
2022/10/09 07:02:17;;;;;;;11.60;9.00;;;;;;;10.55;74.46;101221.05;103902;1284;108720;-89
2022/10/09 07:04:46;;;;;;;12.10;9.10;;;;;;;10.61;74.32;101230.02;103762;1284;98438;-89
2022/10/09 07:07:14;;;;;;;12.10;9.30;;;;;;;10.62;73.99;101225.75;103728;1284;139345;-89
2022/10/09 07:09:42;;;;;;;13.00;9.60;;;;;;;10.62;73.97;101233.23;103821;1284;95760;-90
2022/10/09 07:12:10;;;;;;;14.20;10.10;;;;;;;10.65;73.82;101240.81;103678;1285;139950;-90
2022/10/09 07:14:38;;;;;;;15.00;10.80;;;;;;;10.67;73.86;101238.83;103782;1285;108564;-89
2022/10/09 07:17:08;;;;;;;12.50;10.30;;;;;;;10.68;73.60;101243.98;103933;1284;97255;-87
2022/10/09 07:19:36;;;;;;;12.40;10.10;;;;;;;10.69;73.81;101248.92;103695;1284;140767;-88
2022/10/09 07:22:31;;;;;;;13.30;10.00;;;;;;;10.69;73.59;101248.21;103958;1284;95782;-89
2022/10/09 07:25:08;;;;;;;12.50;9.50;;;;;;;10.72;73.40;101251.91;103881;1284;139421;-86
2022/10/09 07:27:37;;;;;;;12.60;8.70;;;;;;;10.74;73.45;101259.86;104011;1284;108831;-90
2022/10/09 07:30:06;;;;;;;14.40;9.10;;;;;;;10.73;73.82;101258.27;103803;1284;140375;-90
2022/10/09 07:32:34;;;;;;;12.80;7.80;;;;;;;10.76;73.81;101256.47;104011;1284;107034;-88
2022/10/09 07:35:03;;;;;;;11.80;8.10;;;;;;;10.79;73.68;101253.77;103703;1284;95402;-88
2022/10/09 07:37:31;;;;;;;12.30;8.20;;;;;;;10.81;73.91;101255.16;103592;1284;140239;-89
2022/10/09 07:39:59;;;;;;;11.80;7.80;;;;;;;10.89;74.09;101263.23;103839;1284;108818;-90
2022/10/09 07:42:27;;;;;;;12.30;7.60;;;;;;;10.95;73.91;101259.79;103661;1284;140394;-89
2022/10/09 07:44:56;;;;;;;11.40;7.60;;;;;;;10.99;73.65;101264.33;103780;1284;107633;-88
2022/10/09 07:47:24;;;;;;;11.50;7.50;;;;;;;10.94;73.18;101265.64;103729;1282;95283;-89
2022/10/09 07:49:54;;;;;;;11.40;7.80;;;;;;;10.91;73.05;101266.75;103650;1284;140087;-89
2022/10/09 07:52:22;;;;;;;13.10;7.60;;;;;;;10.93;73.20;101267.09;103976;1284;109437;-88
2022/10/09 07:54:50;;;;;;;11.10;7.20;;;;;;;10.98;72.99;101265.95;104062;1283;140032;-90
2022/10/09 07:57:18;;;;;;;10.80;7.00;;;;;;;11.07;73.01;101270.07;103776;1284;107707;-91
2022/10/09 07:59:46;;;;;;;9.70;7.20;;;;;;;11.17;72.61;101277.77;103827;1284;96059;-89
2022/10/09 08:02:14;;;;;;;10.00;7.30;;;;;;;11.19;72.18;101277.55;103778;1283;95289;-90
2022/10/09 08:04:42;;;;;;;10.90;7.20;;;;;;;11.15;72.10;101284.01;103728;1284;108715;-88
2022/10/09 08:07:09;;;;;;;11.00;7.20;;;;;;;11.13;72.11;101287.05;103495;1284;139524;-87
2022/10/09 08:09:38;;;;;;;10.60;7.50;;;;;;;11.11;72.04;101289.39;103888;1284;107792;-88
2022/10/09 08:12:07;;;;;;;12.20;8.00;;;;;;;11.14;72.03;101290.79;103706;1284;139886;-89
2022/10/09 08:14:38;;;;;;;11.70;8.10;;;;;;;11.17;72.27;101299.97;103928;1283;95245;-89
2022/10/09 08:17:08;;;;;;;11.90;7.90;;;;;;;11.19;72.16;101302.08;103815;1284;108933;-89
2022/10/09 08:19:36;;;;;;;12.30;7.80;;;;;;;11.26;72.29;101308.20;103660;1284;139680;-87
2022/10/09 08:22:21;;;;;;;10.60;7.40;;;;;;;11.28;71.95;101312.96;103730;1284;106980;-90
2022/10/09 08:24:49;;;;;;;10.80;7.30;;;;;;;11.29;72.07;101315.45;103681;1284;140043;-91
2022/10/09 08:27:17;;;;;;;11.50;7.00;;;;;;;11.30;72.13;101316.84;104180;1284;95757;-87
2022/10/09 08:29:45;;;;;;;11.70;7.60;;;;;;;11.40;72.21;101316.19;104294;1284;108710;-89
2022/10/09 08:32:15;;;;;;;12.40;7.30;;;;;;;11.43;71.81;101321.65;104003;1283;139264;-89
2022/10/09 08:34:45;;;;;;;11.00;7.40;;;;;;;11.42;71.46;101322.36;103849;1284;108150;-88
2022/10/09 08:37:14;;;;;;;10.60;6.90;;;;;;;11.39;71.21;101323.48;104088;1282;139342;-88
2022/10/09 08:39:44;;;;;;;10.90;6.90;;;;;;;11.42;71.43;101328.23;104075;1284;95258;-91
2022/10/09 08:42:38;;;;;;;10.40;7.20;;;;;;;11.46;71.37;101329.96;103930;1284;139272;-90
2022/10/09 08:45:17;;;;;;;11.40;6.80;;;;;;;11.46;71.31;101332.45;104520;1282;98469;-88
2022/10/09 08:48:11;;;;;;;10.40;6.40;;;;;;;11.45;70.91;101335.30;103906;1284;108318;-88
2022/10/09 08:50:46;;;;;;;11.80;6.70;;;;;;;11.42;71.02;101338.73;104384;1282;96200;-88
2022/10/09 08:53:38;;;;;;;9.20;6.20;;;;;;;11.43;70.96;101341.91;104013;1284;96186;-91
2022/10/09 08:56:12;;;;;;;12.40;7.00;;;;;;;11.46;71.00;101345.78;103940;1284;139716;-88
2022/10/09 08:58:43;;;;;;;10.10;6.90;;;;;;;11.52;71.20;101347.30;104155;1284;97081;-90
2022/10/09 09:01:17;;;;;;;9.70;6.60;;;;;;;11.55;70.50;101351.35;104435;1284;139535;-87
2022/10/09 09:04:07;;;;;;;10.30;6.40;;;;;;;11.55;70.42;101347.79;104044;1284;96028;-89
2022/10/09 09:06:45;;;;;;;11.10;6.40;;;;;;;11.57;70.11;101349.72;104122;1284;95435;-89
2022/10/09 09:09:22;;;;;;;10.20;6.50;;;;;;;11.61;70.00;101350.55;103795;1284;109203;-89
2022/10/09 09:12:11;;;;;;;11.40;6.50;;;;;;;11.64;70.05;101347.65;104288;1284;96962;-89
2022/10/09 09:15:13;;;;;;;13.50;8.20;;;;;;;11.63;69.81;101351.94;104257;1282;107536;-89
2022/10/09 09:17:53;;;;;;;12.40;7.70;;;;;;;11.64;69.85;101352.27;104140;1284;96181;-90
2022/10/09 09:20:36;;;;;;;10.50;7.10;;;;;;;11.69;70.16;101353.98;104084;1282;139305;-89
2022/10/09 09:23:13;;;;;;;10.50;7.50;;;;;;;11.73;69.92;101352.67;103630;1285;108845;-91
2022/10/09 09:25:44;;;;;;;12.20;7.80;;;;;;;11.75;69.75;101357.10;103946;1284;139412;-91
2022/10/09 09:28:22;;;;;;;11.00;7.40;;;;;;;11.79;69.80;101360.77;104402;1284;109863;-90
2022/10/09 09:30:57;;;;;;;10.20;7.70;;;;;;;11.81;69.89;101368.02;103967;1284;139504;-90
2022/10/09 09:33:48;;;;;;;31.50;21.50;;;;;;;11.81;69.63;101368.73;104230;1284;96248;-90
2022/10/09 09:36:28;;;;;;;12.10;8.70;;;;;;;11.79;69.67;101363.61;104232;1284;140460;-88
2022/10/09 09:39:20;;;;;;;11.70;7.40;;;;;;;11.78;69.58;101367.89;104871;1282;98462;-91
2022/10/09 09:42:08;;;;;;;10.40;7.80;;;;;;;11.78;69.40;101369.13;104642;1284;139759;-91
2022/10/09 09:44:49;;;;;;;10.20;7.80;;;;;;;11.81;69.66;101374.96;104626;1284;95282;-90
2022/10/09 09:47:25;;;;;;;11.70;7.90;;;;;;;11.86;69.70;101378.26;104594;1284;95169;-90
2022/10/09 09:49:59;;;;;;;11.90;8.10;;;;;;;11.90;69.62;101374.98;104314;1284;142648;-90
2022/10/09 09:52:34;;;;;;;10.60;7.50;;;;;;;11.95;69.65;101377.95;104279;1284;100271;-91
2022/10/09 09:55:05;;;;;;;10.80;7.60;;;;;;;12.01;69.05;101378.58;104005;1284;140584;-90
2022/10/09 09:57:42;;;;;;;11.60;7.40;;;;;;;12.09;68.83;101380.25;104582;1284;95643;-90
2022/10/09 10:00:13;;;;;;;12.10;8.30;;;;;;;12.13;68.25;101384.79;104956;1282;139426;-86
2022/10/09 10:02:45;;;;;;;26.20;18.90;;;;;;;12.17;68.16;101382.41;104379;1284;106975;-89
2022/10/09 10:05:26;;;;;;;11.50;8.00;;;;;;;12.19;67.91;101384.15;104336;1284;98214;-89
2022/10/09 10:08:34;;;;;;;11.50;8.00;;;;;;;12.23;68.01;101389.81;104087;1284;107797;-89
2022/10/09 10:11:06;;;;;;;11.90;7.90;;;;;;;12.25;68.34;101391.54;104184;1284;95349;-89
2022/10/09 10:13:48;;;;;;;10.00;7.50;;;;;;;12.27;67.53;101396.48;103912;1282;139153;-90
2022/10/09 10:16:26;;;;;;;10.70;7.60;;;;;;;12.18;67.56;101395.73;103863;1284;109004;-90
2022/10/09 10:18:56;;;;;;;11.20;7.50;;;;;;;12.18;67.66;101397.88;104276;1284;140736;-89
2022/10/09 10:21:47;;;;;;;10.00;7.10;;;;;;;12.17;67.27;101402.54;104486;1284;108212;-89
2022/10/09 10:24:22;;;;;;;10.90;7.40;;;;;;;12.12;67.59;101408.13;104388;1284;140307;-89
2022/10/09 10:27:11;;;;;;;9.90;7.10;;;;;;;12.17;67.60;101410.38;104241;1284;95248;-90
2022/10/09 10:29:45;;;;;;;9.10;7.10;;;;;;;12.21;67.41;101404.25;104202;1284;108677;-87
2022/10/09 10:32:15;;;;;;;9.50;7.20;;;;;;;12.20;66.77;101405.68;104089;1284;140734;-89
2022/10/09 10:34:55;;;;;;;11.70;7.20;;;;;;;12.24;66.73;101408.29;104439;1284;110022;-90
2022/10/09 10:37:44;;;;;;;11.00;6.80;;;;;;;12.29;66.78;101408.20;104279;1283;95389;-88
2022/10/09 10:40:19;;;;;;;10.10;7.00;;;;;;;12.36;67.01;101412.00;104218;1284;139554;-89
2022/10/09 10:43:09;;;;;;;9.50;6.70;;;;;;;12.37;66.98;101418.58;104284;1283;109159;-90
2022/10/09 10:45:43;;;;;;;10.70;7.00;;;;;;;12.34;66.78;101422.71;104027;1284;139429;-90
2022/10/09 10:48:28;;;;;;;10.90;6.80;;;;;;;12.30;66.40;101424.05;104075;1284;107311;-88
2022/10/09 10:51:20;;;;;;;10.20;7.30;;;;;;;12.20;66.47;101427.41;104252;1283;139672;-88
2022/10/09 10:54:01;;;;;;;11.40;7.40;;;;;;;12.13;66.77;101430.38;104299;1284;95253;-88
2022/10/09 10:56:43;;;;;;;10.50;7.40;;;;;;;12.12;66.93;101434.30;104041;1284;139868;-88
2022/10/09 10:59:36;;;;;;;10.30;7.40;;;;;;;12.10;66.92;101436.66;104193;1284;98365;-89
2022/10/09 11:02:29;;;;;;;11.70;7.80;;;;;;;12.14;66.92;101437.84;104145;1284;107751;-86
2022/10/09 11:05:12;;;;;;;11.60;7.70;;;;;;;12.20;66.85;101436.67;104382;1284;95472;-90
2022/10/09 11:07:48;;;;;;;11.00;7.30;;;;;;;12.21;66.40;101438.08;104216;1284;95255;-89
2022/10/09 11:10:59;;;;;;;11.30;7.90;;;;;;;12.18;66.29;101440.61;104156;1284;143214;-88
2022/10/09 11:13:57;;;;;;;10.90;7.80;;;;;;;12.21;66.53;101436.30;104239;1283;97350;-89
2022/10/09 11:16:28;;;;;;;11.00;7.70;;;;;;;12.23;66.53;101437.34;104064;1283;139166;-89
2022/10/09 11:19:02;;;;;;;10.60;7.20;;;;;;;12.27;66.53;101431.40;104150;1284;95379;-88
2022/10/09 11:21:52;;;;;;;10.50;6.90;;;;;;;12.31;66.22;101427.59;104330;1284;140094;-88
2022/10/09 11:24:29;;;;;;;10.40;6.40;;;;;;;12.28;65.68;101429.95;104382;1284;108706;-90
2022/10/09 11:27:03;;;;;;;8.60;6.20;;;;;;;12.32;66.17;101426.86;104432;1284;140588;-89
2022/10/09 11:29:44;;;;;;;10.60;6.40;;;;;;;12.35;65.65;101423.61;104155;1284;106532;-89
2022/10/09 11:32:27;;;;;;;10.50;6.30;;;;;;;12.40;65.67;101419.41;104332;1284;140686;-90
2022/10/09 11:35:23;;;;;;;8.10;5.40;;;;;;;12.52;65.37;101423.13;104476;1284;96219;-91